Gogama, Canada
Current Conditions -  °F | °C
As of 8:38 AM on Friday 19 Dec 2014 (Local Time) from CYTS Reporting Station
Broken Clouds Broken Clouds  
Wind Chill: -8°   Ceiling: 200
Heat Index: -8°   Visibility: 10mi
Dew Point: -11°   Wind: 2mph
Humidity: 84%   Direction: 270°W
Pressure: 30.25"   Gusts: NA
Location:  47.67°N, 81.72°W
Report Text: CYTS 191338Z 27002KT 10SM BKN002 M22/M24 A3025 RMK SC7 SLP277
Loading
Personal Weather Stations






























Interactive Weather Map New forecast layout! Learn more

10-Day Weather Forecast

Advertisements
Track Severe Weather on mobile